Keosauqua, Iowa
Current Conditions -  °F | °C
As of 7:15 AM on Friday 31 Oct 2014 (Local Time) from KFFL Reporting Station
Clear Clear  
Wind Chill: 19°   Ceiling: Unl
Heat Index: 30°   Visibility: NA
Dew Point: 18°   Wind: 16mph
Humidity: 60%   Direction: 340°NNW
Pressure: 30.36"   Gusts: 23mph
Location:  40.73°N, 91.96°W
Report Text: KFFL 311215Z AUTO 34014G20KT CLR M01/M08 A3036 RMK AO2
Loading
Personal Weather Stations






























Interactive Weather Map
Tropical Storm Tracking
New forecast layout! Learn more

10-Day Weather Forecast

Advertisements
Track Severe Weather on mobile